createdAt,value
2023-04-22T00:00:18.202Z,184.32
2023-04-22T00:01:24.726Z,168.65
2023-04-22T00:02:27.343Z,265.25
2023-04-22T00:03:33.182Z,252.27
2023-04-22T00:04:38.137Z,384.35
2023-04-22T00:05:45.061Z,222.25
2023-04-22T00:06:47.343Z,300.55
2023-04-22T00:07:52.149Z,469.15
2023-04-22T00:08:54.214Z,408.05
2023-04-22T00:09:58.954Z,313.92
2023-04-22T00:11:01.269Z,318.63
2023-04-22T00:12:06.054Z,277.40
2023-04-22T00:13:08.415Z,418.92
2023-04-22T00:14:13.112Z,305.55
2023-04-22T00:15:15.224Z,354.08
2023-04-22T00:16:20.117Z,296.50
2023-04-22T00:17:22.402Z,293.67
2023-04-22T00:18:27.565Z,348.30
2023-04-22T00:19:30.140Z,335.27
2023-04-22T00:20:37.738Z,317.80
2023-04-22T00:21:39.829Z,400.33
2023-04-22T00:22:44.493Z,311.38
2023-04-22T00:24:04.733Z,286.48
2023-04-22T00:25:08.209Z,257.75
2023-04-22T00:26:12.843Z,173.85
2023-04-22T00:27:14.876Z,229.15
2023-04-22T00:28:19.678Z,164.13
2023-04-22T00:29:21.877Z,246.88
2023-04-22T00:30:26.538Z,341.10
2023-04-22T00:31:28.862Z,241.73
2023-04-22T00:32:33.695Z,321.60
2023-04-22T00:33:36.499Z,257.23
2023-04-22T00:34:41.228Z,222.10
2023-04-22T00:35:46.909Z,322.42
2023-04-22T00:36:51.668Z,228.93
2023-04-22T00:37:53.813Z,204.93
2023-04-22T00:38:58.540Z,378.10
2023-04-22T00:40:00.734Z,205.80
2023-04-22T00:41:05.856Z,198.90
2023-04-22T00:42:08.058Z,227.85
2023-04-22T00:43:13.321Z,386.02
2023-04-22T00:44:15.414Z,187.38
2023-04-22T00:45:21.187Z,238.30
2023-04-22T00:46:24.247Z,257.15
2023-04-22T00:47:29.452Z,186.95
2023-04-22T00:48:32.124Z,205.00
2023-04-22T00:49:45.429Z,173.05
2023-04-22T00:50:50.151Z,247.35
2023-04-22T00:51:54.833Z,203.48
2023-04-22T00:52:57.064Z,143.40
2023-04-22T00:54:02.140Z,152.10
2023-04-22T00:55:05.133Z,281.80
2023-04-22T00:56:10.760Z,324.42
2023-04-22T00:57:12.947Z,345.67
2023-04-22T00:58:17.866Z,203.13
2023-04-22T00:59:21.708Z,187.02
2023-04-22T01:00:27.892Z,184.90
2023-04-22T01:01:30.786Z,261.60
2023-04-22T01:02:36.078Z,244.35
2023-04-22T01:03:41.032Z,244.48
2023-04-22T01:04:46.697Z,263.45
2023-04-22T01:05:51.682Z,224.88
2023-04-22T01:06:56.500Z,277.25
2023-04-22T01:07:58.902Z,177.40
2023-04-22T01:09:03.670Z,278.88
2023-04-22T01:10:07.118Z,298.40
2023-04-22T01:11:11.878Z,206.18
2023-04-22T01:12:14.079Z,233.50
2023-04-22T01:13:18.768Z,283.60
2023-04-22T01:14:20.880Z,170.05
2023-04-22T01:15:26.037Z,221.80
2023-04-22T01:16:29.089Z,222.80
2023-04-22T01:17:34.707Z,257.58
2023-04-22T01:18:37.691Z,189.68
2023-04-22T01:19:43.615Z,202.35
2023-04-22T01:20:45.969Z,248.13
2023-04-22T01:21:54.140Z,139.68
2023-04-22T01:22:57.704Z,193.98
2023-04-22T01:24:05.336Z,201.38
2023-04-22T01:25:08.760Z,179.98
2023-04-22T01:26:13.603Z,188.27
2023-04-22T01:27:16.097Z,192.43
2023-04-22T01:28:20.813Z,142.15
2023-04-22T01:29:23.164Z,200.45
2023-04-22T01:30:28.036Z,140.25
2023-04-22T01:31:30.393Z,219.27
2023-04-22T01:32:36.436Z,195.02
2023-04-22T01:33:38.999Z,210.25
2023-04-22T01:34:43.963Z,201.60
2023-04-22T01:35:46.413Z,274.10
2023-04-22T01:36:51.629Z,164.63
2023-04-22T01:37:53.865Z,156.85
2023-04-22T01:38:59.200Z,195.05
2023-04-22T01:40:04.944Z,193.63
2023-04-22T01:41:10.609Z,158.65
2023-04-22T01:42:12.935Z,203.70
2023-04-22T01:43:17.730Z,238.32
2023-04-22T01:44:20.309Z,152.85
2023-04-22T01:45:25.011Z,168.00
2023-04-22T01:46:27.328Z,264.23
2023-04-22T01:47:32.290Z,172.32
2023-04-22T01:48:35.446Z,173.45
2023-04-22T01:49:40.516Z,259.55
2023-04-22T01:50:42.759Z,175.13
2023-04-22T01:51:47.502Z,178.98
2023-04-22T01:52:49.708Z,153.85
2023-04-22T01:53:54.666Z,149.20
2023-04-22T01:54:58.510Z,230.02
2023-04-22T01:56:06.144Z,170.15
2023-04-22T01:57:11.058Z,166.48
2023-04-22T01:58:15.869Z,221.07
2023-04-22T01:59:18.024Z,198.88
2023-04-22T02:00:23.610Z,396.45
2023-04-22T02:01:25.710Z,221.68
2023-04-22T02:02:30.577Z,164.73
2023-04-22T02:03:32.792Z,214.25
2023-04-22T02:04:37.594Z,219.18
2023-04-22T02:05:40.032Z,299.45
2023-04-22T02:06:44.743Z,240.15
2023-04-22T02:07:46.860Z,211.43
2023-04-22T02:08:51.536Z,260.20
2023-04-22T02:09:53.880Z,193.18
2023-04-22T02:10:58.648Z,162.15
2023-04-22T02:12:03.401Z,318.35
2023-04-22T02:13:08.054Z,157.98
2023-04-22T02:14:10.472Z,195.93
2023-04-22T02:15:15.656Z,180.73
2023-04-22T02:16:17.950Z,222.57
2023-04-22T02:17:22.613Z,236.85
2023-04-22T02:18:24.679Z,220.80
2023-04-22T02:19:29.500Z,195.02
2023-04-22T02:20:31.752Z,201.95
2023-04-22T02:21:36.707Z,135.43
2023-04-22T02:22:39.574Z,280.50
2023-04-22T02:23:44.368Z,213.85
2023-04-22T02:24:46.869Z,284.38
2023-04-22T02:25:52.851Z,242.45
2023-04-22T02:26:54.956Z,197.27
2023-04-22T02:28:02.236Z,239.38
2023-04-22T02:29:04.276Z,147.25
2023-04-22T02:30:10.703Z,194.23
2023-04-22T02:31:12.851Z,321.73
2023-04-22T02:32:17.653Z,176.82
2023-04-22T02:33:19.762Z,174.25
2023-04-22T02:34:24.419Z,275.08
2023-04-22T02:35:26.484Z,150.63
2023-04-22T02:36:32.128Z,261.75
2023-04-22T02:37:34.383Z,152.65
2023-04-22T02:38:41.988Z,203.60
2023-04-22T02:39:44.096Z,207.15
2023-04-22T02:40:48.770Z,185.20
2023-04-22T02:41:50.840Z,152.43
2023-04-22T02:42:55.804Z,232.73
2023-04-22T02:44:00.506Z,168.50
2023-04-22T02:45:05.282Z,179.52
2023-04-22T02:46:07.664Z,214.07
2023-04-22T02:47:12.507Z,164.93
2023-04-22T02:48:14.580Z,164.48
2023-04-22T02:49:19.281Z,163.13
2023-04-22T02:50:21.639Z,143.70
2023-04-22T02:51:26.856Z,247.13
2023-04-22T02:52:29.066Z,118.15
2023-04-22T02:53:33.937Z,156.18
2023-04-22T02:54:36.074Z,196.65
2023-04-22T02:55:43.959Z,170.23
2023-04-22T02:56:46.445Z,220.55
2023-04-22T02:57:51.107Z,164.55
2023-04-22T02:58:53.205Z,166.75
2023-04-22T03:00:04.065Z,179.15
2023-04-22T03:01:06.466Z,134.05
2023-04-22T03:02:11.645Z,179.20
2023-04-22T03:03:13.928Z,156.82
2023-04-22T03:04:22.215Z,133.32
2023-04-22T03:05:25.208Z,180.00
2023-04-22T03:06:29.902Z,133.10
2023-04-22T03:07:32.267Z,218.02
2023-04-22T03:08:36.978Z,152.60
2023-04-22T03:09:39.222Z,200.80
2023-04-22T03:10:44.130Z,188.40
2023-04-22T03:11:46.463Z,145.10
2023-04-22T03:12:51.192Z,166.02
2023-04-22T03:13:56.452Z,177.85
2023-04-22T03:15:03.765Z,189.88
2023-04-22T03:16:06.587Z,214.73
2023-04-22T03:17:11.263Z,280.80
2023-04-22T03:18:13.410Z,207.57
2023-04-22T03:19:18.080Z,220.20
2023-04-22T03:20:20.641Z,223.80
2023-04-22T03:21:25.370Z,213.77
2023-04-22T03:22:27.530Z,228.20
2023-04-22T03:23:32.238Z,178.10
2023-04-22T03:24:34.478Z,188.75
2023-04-22T03:25:39.425Z,292.17
2023-04-22T03:26:41.507Z,232.55
2023-04-22T03:27:46.181Z,223.55
2023-04-22T03:28:48.309Z,262.38
2023-04-22T03:29:52.962Z,213.63
2023-04-22T03:30:57.582Z,319.20
2023-04-22T03:32:02.360Z,238.32
2023-04-22T03:33:04.579Z,228.32
2023-04-22T03:34:09.209Z,198.73
2023-04-22T03:35:11.591Z,224.30
2023-04-22T03:36:16.249Z,274.55
2023-04-22T03:37:18.312Z,256.80
2023-04-22T03:38:22.981Z,224.38
2023-04-22T03:39:25.129Z,222.00
2023-04-22T03:40:29.834Z,212.38
2023-04-22T03:41:31.947Z,174.05
2023-04-22T03:42:36.772Z,303.80
2023-04-22T03:43:38.821Z,227.88
2023-04-22T03:44:43.513Z,256.95
2023-04-22T03:45:46.028Z,184.63
2023-04-22T03:46:53.334Z,209.68
2023-04-22T03:47:56.023Z,214.48
2023-04-22T03:49:00.736Z,173.05
2023-04-22T03:50:03.004Z,172.70
2023-04-22T03:51:07.932Z,226.10
2023-04-22T03:52:10.063Z,158.50
2023-04-22T03:53:14.725Z,191.68
2023-04-22T03:54:16.789Z,179.82
2023-04-22T03:55:21.495Z,223.80
2023-04-22T03:56:24.733Z,162.80
2023-04-22T03:57:29.403Z,191.77
2023-04-22T03:58:31.762Z,260.67
2023-04-22T03:59:36.589Z,190.82
2023-04-22T04:00:38.692Z,154.85
2023-04-22T04:01:43.348Z,183.45
2023-04-22T04:02:48.148Z,199.05
2023-04-22T04:03:53.195Z,280.42
2023-04-22T04:04:55.672Z,158.30
2023-04-22T04:06:00.787Z,184.02
2023-04-22T04:07:03.357Z,142.20
2023-04-22T04:08:08.217Z,148.13
2023-04-22T04:09:11.166Z,245.70
2023-04-22T04:10:15.853Z,167.57
2023-04-22T04:11:17.960Z,170.73
2023-04-22T04:12:22.651Z,151.65
2023-04-22T04:13:24.880Z,176.43
2023-04-22T04:14:29.757Z,139.18
2023-04-22T04:15:32.854Z,165.75
2023-04-22T04:16:37.695Z,172.02
2023-04-22T04:17:39.960Z,172.55
2023-04-22T04:18:47.273Z,261.48
2023-04-22T04:19:49.391Z,171.35
2023-04-22T04:20:54.094Z,200.60
2023-04-22T04:21:57.222Z,178.68
2023-04-22T04:23:01.885Z,155.25
2023-04-22T04:24:04.453Z,196.13
2023-04-22T04:25:21.735Z,245.30
2023-04-22T04:26:24.122Z,168.45
2023-04-22T04:27:28.776Z,202.55
2023-04-22T04:28:33.272Z,200.75
2023-04-22T04:29:38.263Z,193.45
2023-04-22T04:30:41.882Z,247.60
2023-04-22T04:31:46.618Z,272.60
2023-04-22T04:32:51.404Z,210.20
2023-04-22T04:33:57.468Z,254.55
2023-04-22T04:35:02.360Z,252.52
2023-04-22T04:36:05.063Z,185.57
2023-04-22T04:37:09.831Z,216.20
2023-04-22T04:38:12.961Z,246.98
2023-04-22T04:39:19.169Z,225.30
2023-04-22T04:40:22.187Z,158.15
2023-04-22T04:41:28.379Z,191.73
2023-04-22T04:42:31.184Z,237.45
2023-04-22T04:43:36.005Z,143.38
2023-04-22T04:44:38.399Z,129.73
2023-04-22T04:45:48.303Z,174.15
2023-04-22T04:46:52.164Z,147.80
2023-04-22T04:47:57.023Z,168.43
2023-04-22T04:49:05.232Z,147.32
2023-04-22T04:50:08.685Z,180.85
2023-04-22T04:51:13.399Z,172.65
2023-04-22T04:52:15.476Z,155.35
2023-04-22T04:53:20.202Z,168.82
2023-04-22T04:54:22.310Z,159.02
2023-04-22T04:55:27.067Z,136.80
2023-04-22T04:56:29.278Z,148.60
2023-04-22T04:57:33.934Z,140.95
2023-04-22T04:58:36.119Z,219.27
2023-04-22T04:59:41.101Z,135.82
2023-04-22T05:00:43.571Z,157.43
2023-04-22T05:01:48.375Z,207.15
2023-04-22T05:02:50.566Z,162.75
2023-04-22T05:03:55.479Z,248.40
2023-04-22T05:05:00.505Z,183.07
2023-04-22T05:06:07.137Z,126.75
2023-04-22T05:07:09.334Z,225.85
2023-04-22T05:08:14.031Z,148.55
2023-04-22T05:09:17.120Z,154.32
2023-04-22T05:10:21.924Z,176.82
2023-04-22T05:11:24.041Z,142.57
2023-04-22T05:12:28.796Z,145.38
2023-04-22T05:13:31.439Z,145.60
2023-04-22T05:14:36.109Z,146.65
2023-04-22T05:15:38.331Z,186.32
2023-04-22T05:16:43.401Z,128.75
2023-04-22T05:17:45.576Z,155.10
2023-04-22T05:18:50.395Z,193.73
2023-04-22T05:19:52.557Z,152.55
2023-04-22T05:21:00.311Z,140.55
2023-04-22T05:22:02.534Z,152.30
2023-04-22T05:23:07.300Z,115.68
2023-04-22T05:24:09.408Z,117.93
2023-04-22T05:25:14.093Z,196.85
2023-04-22T05:26:17.519Z,147.00
2023-04-22T05:27:22.266Z,120.97
2023-04-22T05:28:24.534Z,227.35
2023-04-22T05:29:29.246Z,146.85
2023-04-22T05:30:31.485Z,143.60
2023-04-22T05:31:36.209Z,131.40
2023-04-22T05:32:38.487Z,202.15
2023-04-22T05:33:43.355Z,144.43
2023-04-22T05:34:45.717Z,173.73
2023-04-22T05:35:59.492Z,202.70
2023-04-22T05:37:03.005Z,174.80
2023-04-22T05:38:07.963Z,202.60
2023-04-22T05:39:13.125Z,260.67
2023-04-22T05:40:15.235Z,222.48
2023-04-22T05:41:19.879Z,197.00
2023-04-22T05:42:21.956Z,210.18
2023-04-22T05:43:26.638Z,217.25
2023-04-22T05:44:28.786Z,176.10
2023-04-22T05:45:33.540Z,153.63
2023-04-22T05:46:35.700Z,158.60
2023-04-22T05:47:40.743Z,152.85
2023-04-22T05:48:42.832Z,208.32
2023-04-22T05:49:47.580Z,163.10
2023-04-22T05:50:49.718Z,209.57
2023-04-22T05:51:57.023Z,197.32
2023-04-22T05:53:01.774Z,194.98
2023-04-22T05:54:04.088Z,211.93
2023-04-22T05:55:10.347Z,139.40
2023-04-22T05:56:12.417Z,127.20
2023-04-22T05:57:17.144Z,201.55
2023-04-22T05:58:19.265Z,121.95
2023-04-22T05:59:23.918Z,146.63
2023-04-22T06:00:26.222Z,306.83
2023-04-22T06:01:31.026Z,107.07
2023-04-22T06:02:33.380Z,148.93
2023-04-22T06:03:38.516Z,206.27
2023-04-22T06:04:41.548Z,169.35
2023-04-22T06:05:47.141Z,284.23
2023-04-22T06:06:50.057Z,220.15
2023-04-22T06:07:57.355Z,271.88
2023-04-22T06:08:59.660Z,263.98
2023-04-22T06:10:05.625Z,157.90
2023-04-22T06:11:08.162Z,248.07
2023-04-22T06:12:13.640Z,232.52
2023-04-22T06:13:15.736Z,200.70
2023-04-22T06:14:20.418Z,232.05
2023-04-22T06:15:25.196Z,200.32
2023-04-22T06:16:27.921Z,181.75
2023-04-22T06:17:32.678Z,297.45
2023-04-22T06:18:38.099Z,267.60
2023-04-22T06:19:43.277Z,178.15
2023-04-22T06:20:45.395Z,217.32
2023-04-22T06:21:50.123Z,228.70
2023-04-22T06:22:57.394Z,224.68
2023-04-22T06:24:00.123Z,234.45
2023-04-22T06:25:04.923Z,198.43
2023-04-22T06:26:07.119Z,265.75
2023-04-22T06:27:12.057Z,309.17
2023-04-22T06:28:14.163Z,217.88
2023-04-22T06:29:18.877Z,293.30
2023-04-22T06:30:21.441Z,209.27
2023-04-22T06:31:26.099Z,264.95
2023-04-22T06:32:28.244Z,232.68
2023-04-22T06:33:32.934Z,305.40
2023-04-22T06:34:35.152Z,223.32
2023-04-22T06:35:40.010Z,213.82
2023-04-22T06:36:42.330Z,214.13
2023-04-22T06:37:47.047Z,181.18
2023-04-22T06:38:51.743Z,307.17
2023-04-22T06:39:56.520Z,226.20
2023-04-22T06:41:03.580Z,246.95
2023-04-22T06:42:08.966Z,293.80
2023-04-22T06:43:11.038Z,193.43
2023-04-22T06:44:15.789Z,187.77
2023-04-22T06:45:18.634Z,220.65
2023-04-22T06:46:23.349Z,179.15
2023-04-22T06:47:25.556Z,159.02
2023-04-22T06:48:30.256Z,196.10
2023-04-22T06:49:32.398Z,206.63
2023-04-22T06:50:37.130Z,196.82
2023-04-22T06:51:39.487Z,198.82
2023-04-22T06:52:44.576Z,206.38
2023-04-22T06:54:01.185Z,245.38
2023-04-22T06:55:03.828Z,323.05
2023-04-22T06:56:09.426Z,196.98
2023-04-22T06:57:11.586Z,199.38
2023-04-22T06:58:16.278Z,172.90
2023-04-22T06:59:18.360Z,184.82
2023-04-22T07:00:23.093Z,154.38
2023-04-22T07:01:25.181Z,178.57
2023-04-22T07:02:30.018Z,166.52
2023-04-22T07:03:32.334Z,177.32
2023-04-22T07:04:39.736Z,175.57
2023-04-22T07:05:43.825Z,231.82
2023-04-22T07:06:48.701Z,308.67
2023-04-22T07:07:50.822Z,288.17
2023-04-22T07:08:55.578Z,294.83
2023-04-22T07:10:02.855Z,373.70
2023-04-22T07:11:07.647Z,451.00
2023-04-22T07:12:09.790Z,473.23
2023-04-22T07:13:14.453Z,563.63
2023-04-22T07:14:19.164Z,670.97
2023-04-22T07:15:21.373Z,827.67
2023-04-22T07:16:26.206Z,888.92
2023-04-22T07:17:28.366Z,929.92
2023-04-22T07:18:33.074Z,1016.13
2023-04-22T07:19:35.416Z,1081.28
2023-04-22T07:20:40.215Z,1120.47
2023-04-22T07:21:42.457Z,945.53
2023-04-22T07:22:47.108Z,407.55
2023-04-22T07:23:49.245Z,705.60
2023-04-22T07:24:53.922Z,433.35
2023-04-22T07:26:01.274Z,1029.85
2023-04-22T07:27:03.927Z,1092.43
2023-04-22T07:28:08.617Z,980.78
2023-04-22T07:29:11.540Z,977.33
2023-04-22T07:30:17.254Z,840.03
2023-04-22T07:31:19.362Z,759.83
2023-04-22T07:32:24.433Z,657.55
2023-04-22T07:33:26.549Z,614.53
2023-04-22T07:34:31.237Z,544.83
2023-04-22T07:35:33.380Z,449.42
2023-04-22T07:36:38.041Z,551.97
2023-04-22T07:37:40.185Z,620.22
2023-04-22T07:38:44.969Z,587.75
2023-04-22T07:39:47.045Z,631.78
2023-04-22T07:40:51.778Z,651.15
2023-04-22T07:41:57.812Z,567.75
2023-04-22T07:43:02.597Z,610.03
2023-04-22T07:44:04.798Z,645.40
2023-04-22T07:45:11.747Z,545.67
2023-04-22T07:46:13.911Z,603.35
2023-04-22T07:47:18.603Z,416.58
2023-04-22T07:48:20.911Z,328.63
2023-04-22T07:49:25.643Z,377.88
2023-04-22T07:50:27.812Z,285.30
2023-04-22T07:51:32.678Z,297.50
2023-04-22T07:52:35.373Z,351.80
2023-04-22T07:53:40.025Z,274.33
2023-04-22T07:54:43.902Z,357.70
2023-04-22T07:55:50.058Z,406.02
2023-04-22T07:56:58.967Z,433.45
2023-04-22T07:58:08.202Z,389.23
2023-04-22T08:01:05.720Z,414.60
2023-04-22T08:02:10.026Z,335.45
2023-04-22T08:03:16.197Z,414.65
2023-04-22T08:04:18.762Z,332.00
2023-04-22T08:05:27.489Z,386.92
2023-04-22T08:06:32.940Z,329.58
2023-04-22T08:07:38.958Z,339.63
2023-04-22T08:08:43.953Z,928.38
2023-04-22T08:09:50.751Z,457.33
2023-04-22T08:10:55.490Z,892.80
2023-04-22T08:12:05.678Z,1006.22
2023-04-22T08:13:12.475Z,1093.75
2023-04-22T08:14:19.928Z,1083.55
2023-04-22T08:15:27.214Z,992.70
2023-04-22T08:16:32.360Z,1011.72
2023-04-22T08:17:39.955Z,1071.47
2023-04-22T08:18:44.667Z,1146.28
2023-04-22T08:19:50.647Z,1229.57
2023-04-22T08:20:57.825Z,1193.05
2023-04-22T08:22:01.741Z,1290.68
2023-04-22T08:23:07.199Z,1182.68
2023-04-22T08:24:11.644Z,1139.65
2023-04-22T08:25:18.393Z,1069.45
2023-04-22T08:26:20.818Z,210.63
2023-04-22T08:27:32.198Z,290.92
2023-04-22T08:28:35.264Z,316.05
2023-04-22T08:29:43.049Z,290.73
2023-04-22T08:30:46.915Z,181.88
2023-04-22T08:31:53.390Z,274.63
2023-04-22T08:32:56.861Z,740.95
2023-04-22T08:34:04.729Z,1190.95
2023-04-22T08:35:13.144Z,180.95
2023-04-22T08:36:18.405Z,231.52
2023-04-22T08:37:26.877Z,292.67
2023-04-22T08:38:33.010Z,156.70
2023-04-22T08:39:41.416Z,204.82
2023-04-22T08:40:47.951Z,347.27
2023-04-22T08:41:57.675Z,286.52
2023-04-22T08:43:05.945Z,218.98
2023-04-22T08:44:13.764Z,221.35
2023-04-22T08:45:18.690Z,191.52
2023-04-22T08:46:27.929Z,228.85
2023-04-22T08:47:35.193Z,196.95
2023-04-22T08:48:42.742Z,140.80
2023-04-22T08:49:52.084Z,287.30
2023-04-22T08:50:55.766Z,672.75
2023-04-22T08:52:06.570Z,972.97
2023-04-22T08:53:12.713Z,730.50
2023-04-22T08:54:21.263Z,517.42
2023-04-22T08:55:30.982Z,525.47
2023-04-22T08:56:41.952Z,509.70
2023-04-22T08:57:49.762Z,348.20
2023-04-22T08:59:02.359Z,395.92
2023-04-22T09:00:10.061Z,414.63
2023-04-22T09:01:19.209Z,685.28
2023-04-22T09:02:25.876Z,1203.95
2023-04-22T09:03:34.145Z,1173.88
2023-04-22T09:04:39.159Z,697.00
2023-04-22T09:05:49.429Z,920.22
2023-04-22T09:06:54.536Z,894.97
2023-04-22T09:08:03.069Z,1051.55
2023-04-22T09:09:33.801Z,1218.38
2023-04-22T09:10:39.636Z,1133.82
2023-04-22T09:11:47.720Z,1120.03
2023-04-22T09:12:53.249Z,1116.00
2023-04-22T09:14:04.034Z,1095.18
2023-04-22T09:15:11.580Z,975.15
2023-04-22T09:16:19.441Z,1026.18
2023-04-22T09:17:34.716Z,1036.95
2023-04-22T09:18:47.031Z,511.58
2023-04-22T09:20:00.416Z,759.42
2023-04-22T09:21:09.952Z,875.92
2023-04-22T09:22:17.084Z,999.28
2023-04-22T09:23:25.755Z,1243.00
2023-04-22T09:24:32.018Z,1199.50
2023-04-22T09:25:41.227Z,1190.65
2023-04-22T09:26:47.811Z,1143.60
2023-04-22T09:27:56.053Z,1180.30
2023-04-22T09:29:03.973Z,1181.32
2023-04-22T09:30:15.903Z,1217.43
2023-04-22T09:31:18.924Z,1208.03
2023-04-22T09:32:29.853Z,1195.38
2023-04-22T09:33:35.150Z,1219.53
2023-04-22T09:34:56.980Z,1144.22
2023-04-22T09:37:10.962Z,1223.47
2023-04-22T09:38:19.434Z,1186.40
2023-04-22T09:39:25.990Z,942.10
2023-04-22T09:40:35.057Z,667.08
2023-04-22T09:41:41.528Z,651.80
2023-04-22T09:42:54.348Z,693.33
2023-04-22T09:44:07.300Z,612.88
2023-04-22T09:45:15.440Z,528.17
2023-04-22T09:46:21.382Z,509.10
2023-04-22T09:47:28.770Z,565.65
2023-04-22T09:48:32.883Z,522.33
2023-04-22T09:49:42.744Z,557.53
2023-04-22T09:50:52.462Z,1041.47
2023-04-22T09:51:57.360Z,1246.65
2023-04-22T09:53:04.703Z,1264.28
2023-04-22T09:54:14.224Z,1145.00
2023-04-22T09:55:20.700Z,1341.40
2023-04-22T09:56:41.525Z,1108.57
2023-04-22T09:57:48.172Z,1009.42
2023-04-22T09:58:55.217Z,1193.65
2023-04-22T10:00:04.055Z,1224.65
2023-04-22T10:01:10.758Z,1193.82
2023-04-22T10:02:15.647Z,1213.45
2023-04-22T10:03:21.129Z,1213.22
2023-04-22T10:04:25.683Z,1197.82
2023-04-22T10:05:30.367Z,1192.22
2023-04-22T10:06:32.590Z,1188.25
2023-04-22T10:07:37.587Z,1196.93
2023-04-22T10:08:42.445Z,1207.45
2023-04-22T10:09:47.643Z,1236.13
2023-04-22T10:10:49.760Z,1211.38
2023-04-22T10:11:58.256Z,1265.28
2023-04-22T10:13:00.709Z,1233.28
2023-04-22T10:14:05.608Z,1227.72
2023-04-22T10:15:08.941Z,1283.00
2023-04-22T10:16:19.508Z,1246.57
2023-04-22T10:17:27.133Z,1270.10
2023-04-22T10:18:32.544Z,1280.38
2023-04-22T10:19:42.125Z,1282.18
2023-04-22T10:20:51.976Z,1293.43
2023-04-22T10:21:57.671Z,1300.25
2023-04-22T10:23:07.827Z,1299.43
2023-04-22T10:26:09.246Z,515.10
2023-04-22T10:27:13.610Z,515.53
2023-04-22T10:28:20.675Z,962.88
2023-04-22T10:29:24.206Z,1209.65
2023-04-22T10:30:37.369Z,1123.88
2023-04-22T10:31:44.816Z,1132.20
2023-04-22T10:32:51.616Z,1116.20
2023-04-22T10:34:11.867Z,1174.10
2023-04-22T10:35:20.483Z,1138.78
2023-04-22T10:36:25.220Z,1147.28
2023-04-22T10:37:33.658Z,1155.50
2023-04-22T10:38:38.649Z,1093.40
2023-04-22T10:39:46.963Z,1094.82
2023-04-22T10:41:01.463Z,1180.95
2023-04-22T10:42:16.360Z,1244.63
2023-04-22T10:43:22.022Z,1297.57
2023-04-22T10:44:34.157Z,1262.63
2023-04-22T10:45:37.635Z,1269.22
2023-04-22T10:47:09.133Z,1265.80
2023-04-22T10:48:17.308Z,1375.25
2023-04-22T10:49:22.101Z,1257.95
2023-04-22T10:50:30.594Z,1251.47
2023-04-22T10:51:40.850Z,1255.72
2023-04-22T10:52:51.452Z,1263.45
2023-04-22T10:53:55.067Z,1280.47
2023-04-22T10:55:03.952Z,1324.47
2023-04-22T10:56:22.682Z,1297.80
2023-04-22T10:57:36.019Z,1328.85
2023-04-22T10:58:40.720Z,1244.55
2023-04-22T10:59:48.797Z,1267.68
2023-04-22T11:01:00.290Z,1273.72
2023-04-22T11:02:06.749Z,1327.65
2023-04-22T11:03:16.622Z,1280.25
2023-04-22T11:04:23.632Z,1280.55
2023-04-22T11:05:30.543Z,1284.18
2023-04-22T11:06:35.225Z,1287.53
2023-04-22T11:07:37.395Z,1281.30
2023-04-22T11:08:48.415Z,1295.03
2023-04-22T11:09:52.305Z,1299.22
2023-04-22T11:11:11.825Z,1308.97
2023-04-22T11:12:45.018Z,1302.47
2023-04-22T11:13:52.106Z,1286.50
2023-04-22T11:14:56.298Z,1303.30
2023-04-22T11:16:01.502Z,1294.38
2023-04-22T11:17:07.871Z,1297.57
2023-04-22T11:18:16.767Z,1461.65
2023-04-22T11:19:22.487Z,1281.57
2023-04-22T11:20:24.781Z,1290.45
2023-04-22T11:21:30.060Z,1294.93
2023-04-22T11:22:36.284Z,1281.13
2023-04-22T11:23:41.074Z,1311.55
2023-04-22T11:24:56.165Z,1280.28
2023-04-22T11:26:04.476Z,1283.80
2023-04-22T11:27:08.613Z,1287.75
2023-04-22T11:28:15.579Z,1275.60
2023-04-22T11:29:19.277Z,1270.25
2023-04-22T11:30:28.277Z,1266.97
2023-04-22T11:31:32.408Z,1275.13
2023-04-22T11:32:46.241Z,1291.28
2023-04-22T11:34:12.072Z,1280.65
2023-04-22T11:35:20.327Z,1285.32
2023-04-22T11:36:26.677Z,1315.55
2023-04-22T11:37:30.261Z,1285.80
2023-04-22T11:38:38.897Z,1292.15
2023-04-22T11:39:56.247Z,1279.28
2023-04-22T11:41:09.918Z,1270.97
2023-04-22T11:42:15.073Z,1276.40
2023-04-22T11:43:23.031Z,1272.43
2023-04-22T11:44:27.479Z,1272.60
2023-04-22T11:45:35.900Z,1280.20
2023-04-22T11:46:42.617Z,1283.80
2023-04-22T11:47:55.353Z,1304.35
2023-04-22T11:49:18.083Z,1322.05
2023-04-22T11:50:27.670Z,1294.05
2023-04-22T11:51:32.762Z,1301.35
2023-04-22T11:52:54.458Z,1289.28
2023-04-22T11:53:59.284Z,1310.43
2023-04-22T11:55:10.561Z,231.95
2023-04-22T11:56:17.893Z,239.80
2023-04-22T11:57:22.754Z,291.35
2023-04-22T11:58:31.944Z,209.07
2023-04-22T11:59:36.406Z,190.32
2023-04-22T12:00:46.262Z,194.82
2023-04-22T12:01:51.431Z,165.57
2023-04-22T12:03:10.216Z,186.00
2023-04-22T12:04:15.685Z,205.10
2023-04-22T12:05:23.137Z,177.60
2023-04-22T12:06:29.655Z,135.38
2023-04-22T12:07:34.210Z,170.82
2023-04-22T12:08:43.844Z,185.05
2023-04-22T12:09:51.598Z,287.83
2023-04-22T12:11:01.447Z,226.15
2023-04-22T12:12:06.292Z,322.52
2023-04-22T12:13:13.881Z,197.00
2023-04-22T12:14:17.168Z,186.13
2023-04-22T12:15:24.685Z,275.50
2023-04-22T12:16:29.281Z,173.00
2023-04-22T12:17:36.508Z,128.90
2023-04-22T12:18:53.995Z,155.00
2023-04-22T12:19:58.033Z,167.50
2023-04-22T12:21:12.364Z,186.50
2023-04-22T12:22:30.086Z,194.20
2023-04-22T12:23:47.159Z,217.30
2023-04-22T12:24:55.456Z,210.57
2023-04-22T12:26:02.418Z,632.80
2023-04-22T12:27:06.029Z,1274.72
2023-04-22T12:28:13.601Z,1214.93
2023-04-22T12:29:20.494Z,1149.35
2023-04-22T12:30:26.879Z,1213.60
2023-04-22T12:31:30.876Z,1302.60
2023-04-22T12:32:38.252Z,1307.88
2023-04-22T12:33:45.883Z,1292.22
2023-04-22T12:34:52.946Z,1151.80
2023-04-22T12:36:02.011Z,836.05
2023-04-22T12:37:06.579Z,234.52
2023-04-22T12:38:12.980Z,340.00
2023-04-22T12:39:17.856Z,317.20
2023-04-22T12:40:24.373Z,228.20
2023-04-22T12:41:29.036Z,232.32
2023-04-22T12:42:36.334Z,281.30
2023-04-22T12:43:40.155Z,225.43
2023-04-22T12:44:47.659Z,217.50
2023-04-22T12:45:51.530Z,281.42
2023-04-22T12:46:58.988Z,222.60
2023-04-22T12:48:05.317Z,223.18
2023-04-22T12:49:11.039Z,310.15
2023-04-22T12:50:17.668Z,450.90
2023-04-22T12:51:21.820Z,354.45
2023-04-22T12:52:28.471Z,372.15
2023-04-22T12:53:32.397Z,392.60
2023-04-22T12:54:38.618Z,362.58
2023-04-22T12:55:47.766Z,374.67
2023-04-22T12:56:56.471Z,348.85
2023-04-22T12:58:03.292Z,269.20
2023-04-22T12:59:07.046Z,197.70
2023-04-22T13:00:32.288Z,584.28
2023-04-22T13:01:35.910Z,262.13
2023-04-22T13:02:42.376Z,275.33
2023-04-22T13:03:46.573Z,274.65
2023-04-22T13:04:56.062Z,217.10
2023-04-22T13:05:59.739Z,358.23
2023-04-22T13:07:08.662Z,181.57
2023-04-22T13:08:15.644Z,246.95
2023-04-22T13:09:18.477Z,292.15
2023-04-22T13:10:25.086Z,290.08
2023-04-22T13:11:28.921Z,240.98
2023-04-22T13:12:38.385Z,297.63
2023-04-22T13:13:48.013Z,311.27
2023-04-22T13:14:54.853Z,348.67
2023-04-22T13:16:03.345Z,623.95
2023-04-22T13:17:10.203Z,480.85
2023-04-22T13:18:14.274Z,690.00
2023-04-22T13:19:21.351Z,964.88
2023-04-22T13:20:27.434Z,1340.38
2023-04-22T13:21:34.470Z,1392.15
2023-04-22T13:22:41.505Z,1392.45
2023-04-22T13:23:45.760Z,1351.78
2023-04-22T13:24:52.703Z,1367.50
2023-04-22T13:25:56.407Z,1359.13
2023-04-22T13:27:03.179Z,1349.80
2023-04-22T13:28:06.327Z,1339.60
2023-04-22T13:29:14.735Z,1349.95
2023-04-22T13:30:18.153Z,1340.15
2023-04-22T13:31:25.269Z,1266.63
2023-04-22T13:32:32.463Z,1226.25
2023-04-22T13:33:36.639Z,1229.63
2023-04-22T13:34:43.878Z,1241.70
2023-04-22T13:35:50.698Z,1174.18
2023-04-22T13:36:55.880Z,1192.10
2023-04-22T13:38:02.725Z,1196.78